sensor_id;sensor_type;location;lat;lon;timestamp;P1;durP1;ratioP1;P2;durP2;ratioP2
51949;SDS011;37974;53.218;6.640;2022-09-09T00:01:20;16.23;;;8.65;;
51949;SDS011;37974;53.218;6.640;2022-09-09T00:06:32;12.60;;;8.73;;
51949;SDS011;37974;53.218;6.640;2022-09-09T00:11:43;15.48;;;8.88;;
51949;SDS011;37974;53.218;6.640;2022-09-09T00:14:22;12.77;;;8.93;;
51949;SDS011;37974;53.218;6.640;2022-09-09T00:16:56;20.30;;;9.18;;
51949;SDS011;37974;53.218;6.640;2022-09-09T00:19:53;14.95;;;9.00;;
51949;SDS011;37974;53.218;6.640;2022-09-09T00:22:17;14.88;;;9.38;;
51949;SDS011;37974;53.218;6.640;2022-09-09T00:24:45;16.92;;;9.10;;
51949;SDS011;37974;53.218;6.640;2022-09-09T00:27:19;18.00;;;9.45;;
51949;SDS011;37974;53.218;6.640;2022-09-09T00:29:57;19.13;;;9.05;;
51949;SDS011;37974;53.218;6.640;2022-09-09T00:32:28;14.57;;;8.27;;
51949;SDS011;37974;53.218;6.640;2022-09-09T00:35:02;19.05;;;10.20;;
51949;SDS011;37974;53.218;6.640;2022-09-09T00:37:37;16.17;;;9.20;;
51949;SDS011;37974;53.218;6.640;2022-09-09T00:40:11;13.27;;;8.57;;
51949;SDS011;37974;53.218;6.640;2022-09-09T00:42:47;12.25;;;8.68;;
51949;SDS011;37974;53.218;6.640;2022-09-09T00:45:28;17.52;;;10.23;;
51949;SDS011;37974;53.218;6.640;2022-09-09T00:48:19;18.80;;;10.32;;
51949;SDS011;37974;53.218;6.640;2022-09-09T00:55:50;16.20;;;9.98;;
51949;SDS011;37974;53.218;6.640;2022-09-09T00:58:26;18.13;;;10.35;;
51949;SDS011;37974;53.218;6.640;2022-09-09T01:00:57;15.15;;;9.70;;
51949;SDS011;37974;53.218;6.640;2022-09-09T01:03:35;19.17;;;9.00;;
51949;SDS011;37974;53.218;6.640;2022-09-09T01:06:25;14.20;;;8.88;;
51949;SDS011;37974;53.218;6.640;2022-09-09T01:11:52;20.15;;;9.85;;
51949;SDS011;37974;53.218;6.640;2022-09-09T01:17:02;11.85;;;8.07;;
51949;SDS011;37974;53.218;6.640;2022-09-09T01:22:11;16.60;;;8.07;;
51949;SDS011;37974;53.218;6.640;2022-09-09T01:27:19;14.38;;;9.07;;
51949;SDS011;37974;53.218;6.640;2022-09-09T01:29:46;13.80;;;8.02;;
51949;SDS011;37974;53.218;6.640;2022-09-09T01:35:04;15.32;;;9.45;;
51949;SDS011;37974;53.218;6.640;2022-09-09T01:37:35;19.52;;;9.75;;
51949;SDS011;37974;53.218;6.640;2022-09-09T01:40:01;14.00;;;8.50;;
51949;SDS011;37974;53.218;6.640;2022-09-09T01:42:27;14.27;;;9.15;;
51949;SDS011;37974;53.218;6.640;2022-09-09T01:44:52;18.88;;;10.13;;
51949;SDS011;37974;53.218;6.640;2022-09-09T01:47:19;18.20;;;9.85;;
51949;SDS011;37974;53.218;6.640;2022-09-09T01:49:45;19.80;;;9.90;;
51949;SDS011;37974;53.218;6.640;2022-09-09T01:52:11;14.40;;;9.80;;
51949;SDS011;37974;53.218;6.640;2022-09-09T01:54:36;19.73;;;11.07;;
51949;SDS011;37974;53.218;6.640;2022-09-09T02:02:18;16.88;;;9.93;;
51949;SDS011;37974;53.218;6.640;2022-09-09T02:04:50;17.85;;;10.23;;
51949;SDS011;37974;53.218;6.640;2022-09-09T02:09:57;21.45;;;10.95;;
51949;SDS011;37974;53.218;6.640;2022-09-09T02:12:27;19.25;;;10.45;;
51949;SDS011;37974;53.218;6.640;2022-09-09T02:14:56;14.60;;;10.55;;
51949;SDS011;37974;53.218;6.640;2022-09-09T02:17:30;21.63;;;10.38;;
51949;SDS011;37974;53.218;6.640;2022-09-09T02:20:02;17.10;;;10.55;;
51949;SDS011;37974;53.218;6.640;2022-09-09T02:22:32;19.50;;;10.32;;
51949;SDS011;37974;53.218;6.640;2022-09-09T02:25:00;18.73;;;10.85;;
51949;SDS011;37974;53.218;6.640;2022-09-09T02:27:30;21.50;;;11.13;;
51949;SDS011;37974;53.218;6.640;2022-09-09T02:29:56;20.42;;;11.82;;
51949;SDS011;37974;53.218;6.640;2022-09-09T02:32:25;23.08;;;10.93;;
51949;SDS011;37974;53.218;6.640;2022-09-09T02:34:55;18.65;;;10.68;;
51949;SDS011;37974;53.218;6.640;2022-09-09T02:37:26;24.88;;;11.88;;
51949;SDS011;37974;53.218;6.640;2022-09-09T02:39:57;21.20;;;11.53;;
51949;SDS011;37974;53.218;6.640;2022-09-09T02:42:22;21.33;;;11.23;;
51949;SDS011;37974;53.218;6.640;2022-09-09T02:44:49;20.20;;;11.50;;
51949;SDS011;37974;53.218;6.640;2022-09-09T02:47:17;17.30;;;10.75;;
51949;SDS011;37974;53.218;6.640;2022-09-09T02:55:26;15.40;;;10.80;;
51949;SDS011;37974;53.218;6.640;2022-09-09T02:58:01;18.90;;;11.15;;
51949;SDS011;37974;53.218;6.640;2022-09-09T03:00:31;25.00;;;11.68;;
51949;SDS011;37974;53.218;6.640;2022-09-09T03:02:57;20.70;;;10.93;;
51949;SDS011;37974;53.218;6.640;2022-09-09T03:05:24;17.65;;;10.88;;
51949;SDS011;37974;53.218;6.640;2022-09-09T03:07:51;17.33;;;11.52;;
51949;SDS011;37974;53.218;6.640;2022-09-09T03:10:20;18.75;;;9.68;;
51949;SDS011;37974;53.218;6.640;2022-09-09T03:12:46;18.45;;;10.32;;
51949;SDS011;37974;53.218;6.640;2022-09-09T03:15:11;14.90;;;10.07;;
51949;SDS011;37974;53.218;6.640;2022-09-09T03:17:38;18.83;;;10.05;;
51949;SDS011;37974;53.218;6.640;2022-09-09T03:20:04;18.05;;;9.73;;
51949;SDS011;37974;53.218;6.640;2022-09-09T03:22:30;16.10;;;9.68;;
51949;SDS011;37974;53.218;6.640;2022-09-09T03:24:56;23.05;;;10.00;;
51949;SDS011;37974;53.218;6.640;2022-09-09T03:27:21;14.02;;;8.25;;
51949;SDS011;37974;53.218;6.640;2022-09-09T03:29:47;18.35;;;7.82;;
51949;SDS011;37974;53.218;6.640;2022-09-09T03:32:16;12.65;;;8.07;;
51949;SDS011;37974;53.218;6.640;2022-09-09T03:34:42;16.80;;;7.95;;
51949;SDS011;37974;53.218;6.640;2022-09-09T03:37:08;13.15;;;7.40;;
51949;SDS011;37974;53.218;6.640;2022-09-09T03:39:37;14.77;;;7.40;;
51949;SDS011;37974;53.218;6.640;2022-09-09T03:42:03;10.25;;;6.20;;
51949;SDS011;37974;53.218;6.640;2022-09-09T03:44:29;14.70;;;6.57;;
51949;SDS011;37974;53.218;6.640;2022-09-09T03:46:55;16.77;;;6.78;;
51949;SDS011;37974;53.218;6.640;2022-09-09T03:49:21;11.35;;;6.32;;
51949;SDS011;37974;53.218;6.640;2022-09-09T03:51:47;12.40;;;6.07;;
51949;SDS011;37974;53.218;6.640;2022-09-09T03:54:13;13.32;;;5.60;;
51949;SDS011;37974;53.218;6.640;2022-09-09T03:56:39;16.13;;;6.10;;
51949;SDS011;37974;53.218;6.640;2022-09-09T03:59:06;13.18;;;5.50;;
51949;SDS011;37974;53.218;6.640;2022-09-09T04:01:33;13.10;;;4.97;;
51949;SDS011;37974;53.218;6.640;2022-09-09T04:03:59;9.75;;;5.28;;
51949;SDS011;37974;53.218;6.640;2022-09-09T04:06:27;15.45;;;4.97;;
51949;SDS011;37974;53.218;6.640;2022-09-09T04:08:53;13.20;;;5.15;;
51949;SDS011;37974;53.218;6.640;2022-09-09T04:11:20;10.88;;;4.30;;
51949;SDS011;37974;53.218;6.640;2022-09-09T04:13:46;10.77;;;4.05;;
51949;SDS011;37974;53.218;6.640;2022-09-09T04:16:12;14.02;;;4.22;;
51949;SDS011;37974;53.218;6.640;2022-09-09T04:18:38;11.77;;;3.50;;
51949;SDS011;37974;53.218;6.640;2022-09-09T04:21:04;14.23;;;3.58;;
51949;SDS011;37974;53.218;6.640;2022-09-09T04:23:32;13.65;;;3.40;;
51949;SDS011;37974;53.218;6.640;2022-09-09T04:25:59;11.38;;;2.78;;
51949;SDS011;37974;53.218;6.640;2022-09-09T04:28:27;11.88;;;3.05;;
51949;SDS011;37974;53.218;6.640;2022-09-09T04:30:54;12.63;;;3.00;;
51949;SDS011;37974;53.218;6.640;2022-09-09T04:33:22;11.27;;;2.90;;
51949;SDS011;37974;53.218;6.640;2022-09-09T04:35:57;17.13;;;3.08;;
51949;SDS011;37974;53.218;6.640;2022-09-09T04:38:24;8.20;;;2.65;;
51949;SDS011;37974;53.218;6.640;2022-09-09T04:40:56;10.52;;;3.13;;
51949;SDS011;37974;53.218;6.640;2022-09-09T04:43:24;10.35;;;3.03;;
51949;SDS011;37974;53.218;6.640;2022-09-09T04:45:52;8.57;;;2.92;;
51949;SDS011;37974;53.218;6.640;2022-09-09T04:48:21;12.38;;;3.35;;
51949;SDS011;37974;53.218;6.640;2022-09-09T04:53:21;10.10;;;3.33;;
51949;SDS011;37974;53.218;6.640;2022-09-09T04:55:50;10.60;;;3.85;;
51949;SDS011;37974;53.218;6.640;2022-09-09T04:58:16;10.82;;;3.97;;
51949;SDS011;37974;53.218;6.640;2022-09-09T05:00:45;9.32;;;3.95;;
51949;SDS011;37974;53.218;6.640;2022-09-09T05:03:20;11.18;;;3.92;;
51949;SDS011;37974;53.218;6.640;2022-09-09T05:05:46;12.05;;;3.97;;
51949;SDS011;37974;53.218;6.640;2022-09-09T05:08:12;8.38;;;4.40;;
51949;SDS011;37974;53.218;6.640;2022-09-09T05:10:38;10.27;;;3.80;;
51949;SDS011;37974;53.218;6.640;2022-09-09T05:13:04;11.90;;;4.05;;
51949;SDS011;37974;53.218;6.640;2022-09-09T05:15:31;9.73;;;4.82;;
51949;SDS011;37974;53.218;6.640;2022-09-09T05:17:58;15.43;;;5.60;;
51949;SDS011;37974;53.218;6.640;2022-09-09T05:20:29;12.52;;;5.45;;
51949;SDS011;37974;53.218;6.640;2022-09-09T05:22:55;10.57;;;5.38;;
51949;SDS011;37974;53.218;6.640;2022-09-09T05:25:24;13.50;;;6.13;;
51949;SDS011;37974;53.218;6.640;2022-09-09T05:27:52;13.00;;;5.97;;
51949;SDS011;37974;53.218;6.640;2022-09-09T05:30:19;11.85;;;6.18;;
51949;SDS011;37974;53.218;6.640;2022-09-09T05:32:49;13.68;;;5.97;;
51949;SDS011;37974;53.218;6.640;2022-09-09T05:35:18;12.75;;;7.28;;
51949;SDS011;37974;53.218;6.640;2022-09-09T05:37:44;13.25;;;7.05;;
51949;SDS011;37974;53.218;6.640;2022-09-09T05:40:11;15.18;;;7.43;;
51949;SDS011;37974;53.218;6.640;2022-09-09T05:42:37;12.05;;;6.95;;
51949;SDS011;37974;53.218;6.640;2022-09-09T05:45:04;13.70;;;7.25;;
51949;SDS011;37974;53.218;6.640;2022-09-09T05:47:32;13.48;;;7.95;;
51949;SDS011;37974;53.218;6.640;2022-09-09T05:49:58;14.45;;;8.40;;
51949;SDS011;37974;53.218;6.640;2022-09-09T05:52:24;13.07;;;7.43;;
51949;SDS011;37974;53.218;6.640;2022-09-09T05:54:52;12.95;;;8.15;;
51949;SDS011;37974;53.218;6.640;2022-09-09T05:57:19;18.60;;;8.18;;
51949;SDS011;37974;53.218;6.640;2022-09-09T05:59:45;14.20;;;8.90;;
51949;SDS011;37974;53.218;6.640;2022-09-09T06:02:11;15.13;;;8.70;;
51949;SDS011;37974;53.218;6.640;2022-09-09T06:04:38;16.95;;;8.32;;
51949;SDS011;37974;53.218;6.640;2022-09-09T06:07:04;16.33;;;9.52;;
51949;SDS011;37974;53.218;6.640;2022-09-09T06:09:31;14.55;;;8.65;;
51949;SDS011;37974;53.218;6.640;2022-09-09T06:11:56;16.23;;;9.30;;
51949;SDS011;37974;53.218;6.640;2022-09-09T06:14:23;15.90;;;9.15;;
51949;SDS011;37974;53.218;6.640;2022-09-09T06:16:50;18.10;;;8.45;;
51949;SDS011;37974;53.218;6.640;2022-09-09T06:19:16;15.82;;;8.15;;
51949;SDS011;37974;53.218;6.640;2022-09-09T06:21:42;13.70;;;8.23;;
51949;SDS011;37974;53.218;6.640;2022-09-09T06:24:09;17.10;;;9.10;;
51949;SDS011;37974;53.218;6.640;2022-09-09T06:26:36;15.32;;;8.80;;
51949;SDS011;37974;53.218;6.640;2022-09-09T06:29:05;13.73;;;8.60;;
51949;SDS011;37974;53.218;6.640;2022-09-09T06:31:32;13.82;;;8.15;;
51949;SDS011;37974;53.218;6.640;2022-09-09T06:34:00;12.60;;;8.25;;
51949;SDS011;37974;53.218;6.640;2022-09-09T06:36:28;14.48;;;7.88;;
51949;SDS011;37974;53.218;6.640;2022-09-09T06:39:23;14.63;;;7.72;;
51949;SDS011;37974;53.218;6.640;2022-09-09T06:42:30;14.32;;;7.68;;
51949;SDS011;37974;53.218;6.640;2022-09-09T06:45:24;12.15;;;7.70;;
51949;SDS011;37974;53.218;6.640;2022-09-09T06:48:22;11.85;;;6.97;;
51949;SDS011;37974;53.218;6.640;2022-09-09T06:51:30;12.32;;;6.82;;
51949;SDS011;37974;53.218;6.640;2022-09-09T06:56:39;11.55;;;6.75;;
51949;SDS011;37974;53.218;6.640;2022-09-09T06:59:08;11.65;;;6.22;;
51949;SDS011;37974;53.218;6.640;2022-09-09T07:01:36;13.18;;;7.25;;
51949;SDS011;37974;53.218;6.640;2022-09-09T07:04:03;11.63;;;6.57;;
51949;SDS011;37974;53.218;6.640;2022-09-09T07:06:41;14.05;;;7.28;;
51949;SDS011;37974;53.218;6.640;2022-09-09T07:09:09;10.60;;;6.40;;
51949;SDS011;37974;53.218;6.640;2022-09-09T07:11:37;14.02;;;6.85;;
51949;SDS011;37974;53.218;6.640;2022-09-09T07:14:07;13.18;;;7.15;;
51949;SDS011;37974;53.218;6.640;2022-09-09T07:16:40;12.27;;;6.32;;
51949;SDS011;37974;53.218;6.640;2022-09-09T07:19:06;9.88;;;6.22;;
51949;SDS011;37974;53.218;6.640;2022-09-09T07:21:32;12.20;;;6.50;;
51949;SDS011;37974;53.218;6.640;2022-09-09T07:23:59;11.20;;;6.78;;
51949;SDS011;37974;53.218;6.640;2022-09-09T07:26:31;12.40;;;6.43;;
51949;SDS011;37974;53.218;6.640;2022-09-09T07:28:57;13.10;;;6.20;;
51949;SDS011;37974;53.218;6.640;2022-09-09T07:31:33;9.52;;;6.47;;
51949;SDS011;37974;53.218;6.640;2022-09-09T07:34:04;12.25;;;6.03;;
51949;SDS011;37974;53.218;6.640;2022-09-09T07:36:31;10.05;;;5.88;;
51949;SDS011;37974;53.218;6.640;2022-09-09T07:39:04;15.68;;;6.25;;
51949;SDS011;37974;53.218;6.640;2022-09-09T07:44:30;10.90;;;5.80;;
51949;SDS011;37974;53.218;6.640;2022-09-09T07:47:00;10.00;;;6.05;;
51949;SDS011;37974;53.218;6.640;2022-09-09T07:49:26;11.32;;;5.38;;
51949;SDS011;37974;53.218;6.640;2022-09-09T07:51:54;10.98;;;5.53;;
51949;SDS011;37974;53.218;6.640;2022-09-09T07:54:20;10.80;;;5.30;;
51949;SDS011;37974;53.218;6.640;2022-09-09T07:56:51;10.55;;;5.07;;
51949;SDS011;37974;53.218;6.640;2022-09-09T08:02:12;11.85;;;4.88;;
51949;SDS011;37974;53.218;6.640;2022-09-09T08:04:37;10.15;;;5.07;;
51949;SDS011;37974;53.218;6.640;2022-09-09T08:07:19;9.07;;;4.90;;
51949;SDS011;37974;53.218;6.640;2022-09-09T08:09:46;10.00;;;5.28;;
51949;SDS011;37974;53.218;6.640;2022-09-09T08:12:12;10.85;;;5.10;;
51949;SDS011;37974;53.218;6.640;2022-09-09T08:14:38;8.35;;;4.72;;
51949;SDS011;37974;53.218;6.640;2022-09-09T08:17:08;7.85;;;4.63;;
51949;SDS011;37974;53.218;6.640;2022-09-09T08:19:35;7.38;;;4.28;;
51949;SDS011;37974;53.218;6.640;2022-09-09T08:22:01;8.70;;;4.45;;
51949;SDS011;37974;53.218;6.640;2022-09-09T08:24:31;7.35;;;4.25;;
51949;SDS011;37974;53.218;6.640;2022-09-09T08:27:05;7.93;;;4.50;;
51949;SDS011;37974;53.218;6.640;2022-09-09T08:29:35;13.10;;;4.63;;
51949;SDS011;37974;53.218;6.640;2022-09-09T08:32:21;10.65;;;4.30;;
51949;SDS011;37974;53.218;6.640;2022-09-09T08:34:50;8.57;;;4.22;;
51949;SDS011;37974;53.218;6.640;2022-09-09T08:37:28;10.88;;;3.85;;
51949;SDS011;37974;53.218;6.640;2022-09-09T08:39:57;7.30;;;3.80;;
51949;SDS011;37974;53.218;6.640;2022-09-09T08:42:40;11.70;;;4.28;;
51949;SDS011;37974;53.218;6.640;2022-09-09T08:45:18;9.27;;;4.10;;
51949;SDS011;37974;53.218;6.640;2022-09-09T08:47:56;8.77;;;3.40;;
51949;SDS011;37974;53.218;6.640;2022-09-09T08:50:51;16.40;;;3.83;;
51949;SDS011;37974;53.218;6.640;2022-09-09T08:53:24;8.93;;;3.83;;
51949;SDS011;37974;53.218;6.640;2022-09-09T08:56:01;9.82;;;3.50;;
51949;SDS011;37974;53.218;6.640;2022-09-09T08:58:35;9.38;;;2.80;;
51949;SDS011;37974;53.218;6.640;2022-09-09T09:06:34;8.38;;;3.35;;
51949;SDS011;37974;53.218;6.640;2022-09-09T09:09:16;8.82;;;3.15;;
51949;SDS011;37974;53.218;6.640;2022-09-09T09:12:06;8.68;;;3.10;;
51949;SDS011;37974;53.218;6.640;2022-09-09T09:14:41;9.98;;;3.50;;
51949;SDS011;37974;53.218;6.640;2022-09-09T09:17:12;6.15;;;3.22;;
51949;SDS011;37974;53.218;6.640;2022-09-09T09:19:48;10.25;;;3.30;;
51949;SDS011;37974;53.218;6.640;2022-09-09T09:22:22;9.68;;;3.58;;
51949;SDS011;37974;53.218;6.640;2022-09-09T09:27:44;9.45;;;3.85;;
51949;SDS011;37974;53.218;6.640;2022-09-09T09:30:14;9.15;;;3.20;;
51949;SDS011;37974;53.218;6.640;2022-09-09T09:32:50;10.48;;;3.38;;
51949;SDS011;37974;53.218;6.640;2022-09-09T09:35:27;8.98;;;3.30;;
51949;SDS011;37974;53.218;6.640;2022-09-09T09:37:53;9.15;;;3.40;;
51949;SDS011;37974;53.218;6.640;2022-09-09T09:40:20;11.15;;;2.90;;
51949;SDS011;37974;53.218;6.640;2022-09-09T09:42:48;11.77;;;3.15;;
51949;SDS011;37974;53.218;6.640;2022-09-09T09:47:58;10.35;;;3.10;;
51949;SDS011;37974;53.218;6.640;2022-09-09T09:50:25;13.93;;;3.78;;
51949;SDS011;37974;53.218;6.640;2022-09-09T09:52:55;11.93;;;2.80;;
51949;SDS011;37974;53.218;6.640;2022-09-09T09:55:23;14.65;;;2.97;;
51949;SDS011;37974;53.218;6.640;2022-09-09T09:57:51;8.95;;;2.55;;
51949;SDS011;37974;53.218;6.640;2022-09-09T10:00:20;9.05;;;2.38;;
51949;SDS011;37974;53.218;6.640;2022-09-09T10:02:48;10.27;;;2.55;;
51949;SDS011;37974;53.218;6.640;2022-09-09T10:05:24;9.10;;;2.30;;
51949;SDS011;37974;53.218;6.640;2022-09-09T10:08:01;12.55;;;2.42;;
51949;SDS011;37974;53.218;6.640;2022-09-09T10:10:39;10.82;;;2.47;;
51949;SDS011;37974;53.218;6.640;2022-09-09T10:13:21;10.13;;;2.45;;
51949;SDS011;37974;53.218;6.640;2022-09-09T10:16:17;13.68;;;1.95;;
51949;SDS011;37974;53.218;6.640;2022-09-09T10:21:42;7.63;;;2.08;;
51949;SDS011;37974;53.218;6.640;2022-09-09T10:27:14;9.88;;;2.25;;
51949;SDS011;37974;53.218;6.640;2022-09-09T10:32:33;8.40;;;1.90;;
51949;SDS011;37974;53.218;6.640;2022-09-09T10:35:20;11.65;;;1.90;;
51949;SDS011;37974;53.218;6.640;2022-09-09T10:38:10;8.77;;;2.13;;
51949;SDS011;37974;53.218;6.640;2022-09-09T10:40:46;14.45;;;2.63;;
51949;SDS011;37974;53.218;6.640;2022-09-09T10:43:39;10.32;;;1.65;;
51949;SDS011;37974;53.218;6.640;2022-09-09T10:48:57;10.60;;;1.85;;
51949;SDS011;37974;53.218;6.640;2022-09-09T10:51:43;15.25;;;2.15;;
51949;SDS011;37974;53.218;6.640;2022-09-09T10:54:27;9.82;;;2.20;;
51949;SDS011;37974;53.218;6.640;2022-09-09T10:57:04;9.43;;;1.90;;
51949;SDS011;37974;53.218;6.640;2022-09-09T10:59:38;14.05;;;2.15;;
51949;SDS011;37974;53.218;6.640;2022-09-09T11:02:16;8.82;;;1.65;;
51949;SDS011;37974;53.218;6.640;2022-09-09T11:04:53;11.05;;;2.05;;
51949;SDS011;37974;53.218;6.640;2022-09-09T11:07:27;12.27;;;2.42;;
51949;SDS011;37974;53.218;6.640;2022-09-09T11:10:21;9.23;;;1.93;;
51949;SDS011;37974;53.218;6.640;2022-09-09T11:12:49;10.27;;;1.85;;
51949;SDS011;37974;53.218;6.640;2022-09-09T11:15:25;6.53;;;1.67;;
51949;SDS011;37974;53.218;6.640;2022-09-09T11:17:56;9.50;;;1.27;;
51949;SDS011;37974;53.218;6.640;2022-09-09T11:20:26;9.15;;;1.33;;
51949;SDS011;37974;53.218;6.640;2022-09-09T11:22:54;9.25;;;1.92;;
51949;SDS011;37974;53.218;6.640;2022-09-09T11:25:26;7.75;;;1.77;;
51949;SDS011;37974;53.218;6.640;2022-09-09T11:33:42;9.52;;;1.58;;
51949;SDS011;37974;53.218;6.640;2022-09-09T11:36:38;5.93;;;1.20;;
51949;SDS011;37974;53.218;6.640;2022-09-09T11:42:21;7.72;;;1.30;;
51949;SDS011;37974;53.218;6.640;2022-09-09T11:44:51;10.68;;;1.23;;
51949;SDS011;37974;53.218;6.640;2022-09-09T11:47:28;8.88;;;1.38;;
51949;SDS011;37974;53.218;6.640;2022-09-09T11:50:08;7.22;;;1.20;;
51949;SDS011;37974;53.218;6.640;2022-09-09T11:52:42;8.32;;;1.33;;
51949;SDS011;37974;53.218;6.640;2022-09-09T11:58:16;8.10;;;1.50;;
51949;SDS011;37974;53.218;6.640;2022-09-09T12:00:56;7.95;;;1.45;;
51949;SDS011;37974;53.218;6.640;2022-09-09T12:03:41;7.40;;;1.25;;
51949;SDS011;37974;53.218;6.640;2022-09-09T12:06:35;9.70;;;1.50;;
51949;SDS011;37974;53.218;6.640;2022-09-09T12:11:43;8.57;;;1.08;;
51949;SDS011;37974;53.218;6.640;2022-09-09T12:14:19;7.50;;;1.33;;
51949;SDS011;37974;53.218;6.640;2022-09-09T12:16:49;7.15;;;1.40;;
51949;SDS011;37974;53.218;6.640;2022-09-09T12:19:18;7.13;;;1.30;;
51949;SDS011;37974;53.218;6.640;2022-09-09T12:24:56;7.32;;;1.30;;
51949;SDS011;37974;53.218;6.640;2022-09-09T12:27:46;5.13;;;0.85;;
51949;SDS011;37974;53.218;6.640;2022-09-09T12:30:42;7.50;;;1.48;;
51949;SDS011;37974;53.218;6.640;2022-09-09T12:33:34;5.53;;;0.93;;
51949;SDS011;37974;53.218;6.640;2022-09-09T12:36:11;9.02;;;1.35;;
51949;SDS011;37974;53.218;6.640;2022-09-09T12:38:44;11.15;;;1.73;;
51949;SDS011;37974;53.218;6.640;2022-09-09T12:41:18;9.27;;;1.60;;
51949;SDS011;37974;53.218;6.640;2022-09-09T12:43:47;14.27;;;1.70;;
51949;SDS011;37974;53.218;6.640;2022-09-09T12:46:20;8.57;;;1.90;;
51949;SDS011;37974;53.218;6.640;2022-09-09T12:49:04;16.80;;;1.30;;
51949;SDS011;37974;53.218;6.640;2022-09-09T12:51:32;6.55;;;1.27;;
51949;SDS011;37974;53.218;6.640;2022-09-09T12:53:59;6.15;;;1.00;;
51949;SDS011;37974;53.218;6.640;2022-09-09T12:56:27;9.68;;;1.48;;
51949;SDS011;37974;53.218;6.640;2022-09-09T12:58:59;9.02;;;1.38;;
51949;SDS011;37974;53.218;6.640;2022-09-09T13:01:32;12.73;;;1.73;;
51949;SDS011;37974;53.218;6.640;2022-09-09T13:06:45;6.40;;;1.45;;
51949;SDS011;37974;53.218;6.640;2022-09-09T13:09:18;12.55;;;2.17;;
51949;SDS011;37974;53.218;6.640;2022-09-09T13:11:46;8.10;;;1.20;;
51949;SDS011;37974;53.218;6.640;2022-09-09T13:14:29;12.68;;;1.48;;
51949;SDS011;37974;53.218;6.640;2022-09-09T13:17:15;10.32;;;1.45;;
51949;SDS011;37974;53.218;6.640;2022-09-09T13:20:16;6.40;;;1.13;;
51949;SDS011;37974;53.218;6.640;2022-09-09T13:22:52;9.23;;;1.33;;
51949;SDS011;37974;53.218;6.640;2022-09-09T13:25:28;11.32;;;1.40;;
51949;SDS011;37974;53.218;6.640;2022-09-09T13:27:55;8.18;;;1.02;;
51949;SDS011;37974;53.218;6.640;2022-09-09T13:30:33;13.75;;;1.63;;
51949;SDS011;37974;53.218;6.640;2022-09-09T13:33:06;6.90;;;0.88;;
51949;SDS011;37974;53.218;6.640;2022-09-09T13:35:54;10.20;;;1.50;;
51949;SDS011;37974;53.218;6.640;2022-09-09T13:38:28;8.35;;;1.13;;
51949;SDS011;37974;53.218;6.640;2022-09-09T13:41:00;10.85;;;1.58;;
51949;SDS011;37974;53.218;6.640;2022-09-09T13:43:43;8.55;;;1.52;;
51949;SDS011;37974;53.218;6.640;2022-09-09T13:51:40;5.47;;;1.00;;
51949;SDS011;37974;53.218;6.640;2022-09-09T13:54:19;6.85;;;0.90;;
51949;SDS011;37974;53.218;6.640;2022-09-09T13:57:24;5.45;;;0.82;;
51949;SDS011;37974;53.218;6.640;2022-09-09T14:00:02;7.07;;;0.95;;
51949;SDS011;37974;53.218;6.640;2022-09-09T14:02:29;7.30;;;1.40;;
51949;SDS011;37974;53.218;6.640;2022-09-09T14:05:21;7.55;;;1.13;;
51949;SDS011;37974;53.218;6.640;2022-09-09T14:07:53;9.93;;;1.17;;
51949;SDS011;37974;53.218;6.640;2022-09-09T14:10:22;14.83;;;1.07;;
51949;SDS011;37974;53.218;6.640;2022-09-09T14:12:48;4.28;;;0.70;;
51949;SDS011;37974;53.218;6.640;2022-09-09T14:15:13;4.22;;;0.65;;
51949;SDS011;37974;53.218;6.640;2022-09-09T14:17:39;4.10;;;0.82;;
51949;SDS011;37974;53.218;6.640;2022-09-09T14:20:06;5.20;;;0.52;;
51949;SDS011;37974;53.218;6.640;2022-09-09T14:22:34;3.67;;;0.60;;
51949;SDS011;37974;53.218;6.640;2022-09-09T14:25:01;5.15;;;0.80;;
51949;SDS011;37974;53.218;6.640;2022-09-09T14:27:27;4.88;;;0.73;;
51949;SDS011;37974;53.218;6.640;2022-09-09T14:29:52;4.90;;;0.70;;
51949;SDS011;37974;53.218;6.640;2022-09-09T14:32:19;8.45;;;0.73;;
51949;SDS011;37974;53.218;6.640;2022-09-09T14:34:46;5.05;;;0.95;;
51949;SDS011;37974;53.218;6.640;2022-09-09T14:37:15;5.25;;;0.95;;
51949;SDS011;37974;53.218;6.640;2022-09-09T14:39:42;5.47;;;1.00;;
51949;SDS011;37974;53.218;6.640;2022-09-09T14:42:09;4.97;;;0.80;;
51949;SDS011;37974;53.218;6.640;2022-09-09T14:44:36;5.22;;;0.93;;
51949;SDS011;37974;53.218;6.640;2022-09-09T14:47:04;5.07;;;1.13;;
51949;SDS011;37974;53.218;6.640;2022-09-09T15:01:59;5.13;;;0.82;;
51949;SDS011;37974;53.218;6.640;2022-09-09T15:04:29;5.72;;;0.90;;
51949;SDS011;37974;53.218;6.640;2022-09-09T15:07:10;5.55;;;0.90;;
51949;SDS011;37974;53.218;6.640;2022-09-09T15:09:39;3.90;;;0.95;;
51949;SDS011;37974;53.218;6.640;2022-09-09T15:12:08;6.30;;;1.15;;
51949;SDS011;37974;53.218;6.640;2022-09-09T15:14:55;3.90;;;1.10;;
51949;SDS011;37974;53.218;6.640;2022-09-09T15:17:21;6.80;;;1.33;;
51949;SDS011;37974;53.218;6.640;2022-09-09T15:19:47;6.07;;;1.35;;
51949;SDS011;37974;53.218;6.640;2022-09-09T15:22:15;6.30;;;1.35;;
51949;SDS011;37974;53.218;6.640;2022-09-09T15:24:40;5.18;;;1.05;;
51949;SDS011;37974;53.218;6.640;2022-09-09T15:27:12;6.53;;;1.70;;
51949;SDS011;37974;53.218;6.640;2022-09-09T15:29:40;6.38;;;1.35;;
51949;SDS011;37974;53.218;6.640;2022-09-09T15:32:06;6.75;;;1.30;;
51949;SDS011;37974;53.218;6.640;2022-09-09T15:34:32;5.53;;;1.20;;
51949;SDS011;37974;53.218;6.640;2022-09-09T15:37:03;5.68;;;1.00;;
51949;SDS011;37974;53.218;6.640;2022-09-09T15:39:29;5.30;;;0.60;;
51949;SDS011;37974;53.218;6.640;2022-09-09T15:41:55;5.00;;;0.85;;
51949;SDS011;37974;53.218;6.640;2022-09-09T15:44:21;3.55;;;0.70;;
51949;SDS011;37974;53.218;6.640;2022-09-09T15:46:51;2.38;;;0.52;;
51949;SDS011;37974;53.218;6.640;2022-09-09T15:49:21;5.00;;;0.95;;
51949;SDS011;37974;53.218;6.640;2022-09-09T15:51:51;3.70;;;0.52;;
51949;SDS011;37974;53.218;6.640;2022-09-09T15:54:19;4.78;;;0.60;;
51949;SDS011;37974;53.218;6.640;2022-09-09T15:56:53;4.80;;;0.73;;
51949;SDS011;37974;53.218;6.640;2022-09-09T16:00:15;2.70;;;0.40;;
51949;SDS011;37974;53.218;6.640;2022-09-09T16:03:09;2.97;;;0.60;;
51949;SDS011;37974;53.218;6.640;2022-09-09T16:05:51;4.43;;;0.60;;
51949;SDS011;37974;53.218;6.640;2022-09-09T16:08:22;4.63;;;0.77;;
51949;SDS011;37974;53.218;6.640;2022-09-09T16:11:07;3.28;;;0.95;;
51949;SDS011;37974;53.218;6.640;2022-09-09T16:16:53;4.13;;;0.82;;
51949;SDS011;37974;53.218;6.640;2022-09-09T16:19:48;5.35;;;0.88;;
51949;SDS011;37974;53.218;6.640;2022-09-09T16:22:14;3.40;;;0.85;;
51949;SDS011;37974;53.218;6.640;2022-09-09T16:24:46;5.03;;;1.10;;
51949;SDS011;37974;53.218;6.640;2022-09-09T16:27:35;5.40;;;1.23;;
51949;SDS011;37974;53.218;6.640;2022-09-09T16:30:05;5.13;;;0.80;;
51949;SDS011;37974;53.218;6.640;2022-09-09T16:33:41;5.40;;;1.05;;
51949;SDS011;37974;53.218;6.640;2022-09-09T16:36:08;5.75;;;1.02;;
51949;SDS011;37974;53.218;6.640;2022-09-09T16:38:38;6.70;;;0.90;;
51949;SDS011;37974;53.218;6.640;2022-09-09T16:41:25;4.05;;;0.73;;
51949;SDS011;37974;53.218;6.640;2022-09-09T16:43:54;4.90;;;0.98;;
51949;SDS011;37974;53.218;6.640;2022-09-09T16:46:34;2.60;;;0.63;;
51949;SDS011;37974;53.218;6.640;2022-09-09T16:49:11;5.15;;;0.85;;
51949;SDS011;37974;53.218;6.640;2022-09-09T16:51:41;4.75;;;0.90;;
51949;SDS011;37974;53.218;6.640;2022-09-09T16:54:09;2.63;;;0.82;;
51949;SDS011;37974;53.218;6.640;2022-09-09T16:56:37;5.03;;;1.10;;
51949;SDS011;37974;53.218;6.640;2022-09-09T16:59:07;4.50;;;0.77;;
51949;SDS011;37974;53.218;6.640;2022-09-09T17:01:39;6.93;;;0.90;;